sensor_id;sensor_type;location;lat;lon;timestamp;P1;durP1;ratioP1;P2;durP2;ratioP2
12554;SDS011;6343;50.868;4.700;2023-10-13T00:02:05;15.70;;;10.47;;
12554;SDS011;6343;50.868;4.700;2023-10-13T00:04:32;16.17;;;10.53;;
12554;SDS011;6343;50.868;4.700;2023-10-13T00:07:00;16.13;;;10.00;;
12554;SDS011;6343;50.868;4.700;2023-10-13T00:09:27;18.30;;;10.33;;
12554;SDS011;6343;50.868;4.700;2023-10-13T00:11:57;17.73;;;9.53;;
12554;SDS011;6343;50.868;4.700;2023-10-13T00:14:23;20.97;;;11.00;;
12554;SDS011;6343;50.868;4.700;2023-10-13T00:17:02;18.37;;;11.40;;
12554;SDS011;6343;50.868;4.700;2023-10-13T00:19:33;21.37;;;10.53;;
12554;SDS011;6343;50.868;4.700;2023-10-13T00:22:15;19.90;;;10.63;;
12554;SDS011;6343;50.868;4.700;2023-10-13T00:24:42;18.80;;;10.33;;
12554;SDS011;6343;50.868;4.700;2023-10-13T00:27:10;21.60;;;10.33;;
12554;SDS011;6343;50.868;4.700;2023-10-13T00:32:47;20.33;;;9.73;;
12554;SDS011;6343;50.868;4.700;2023-10-13T00:35:19;18.93;;;10.37;;
12554;SDS011;6343;50.868;4.700;2023-10-13T00:37:53;15.00;;;9.93;;
12554;SDS011;6343;50.868;4.700;2023-10-13T00:40:22;21.73;;;9.90;;
12554;SDS011;6343;50.868;4.700;2023-10-13T00:42:55;15.97;;;8.77;;
12554;SDS011;6343;50.868;4.700;2023-10-13T00:45:32;15.10;;;9.80;;
12554;SDS011;6343;50.868;4.700;2023-10-13T00:47:59;14.80;;;9.67;;
12554;SDS011;6343;50.868;4.700;2023-10-13T00:50:26;16.87;;;9.87;;
12554;SDS011;6343;50.868;4.700;2023-10-13T00:52:52;17.73;;;10.37;;
12554;SDS011;6343;50.868;4.700;2023-10-13T00:55:20;14.53;;;9.30;;
12554;SDS011;6343;50.868;4.700;2023-10-13T00:57:50;14.63;;;9.40;;
12554;SDS011;6343;50.868;4.700;2023-10-13T01:00:19;16.20;;;8.90;;
12554;SDS011;6343;50.868;4.700;2023-10-13T01:02:49;17.40;;;9.27;;
12554;SDS011;6343;50.868;4.700;2023-10-13T01:05:22;15.77;;;9.33;;
12554;SDS011;6343;50.868;4.700;2023-10-13T01:07:49;21.17;;;9.77;;
12554;SDS011;6343;50.868;4.700;2023-10-13T01:10:19;15.77;;;9.10;;
12554;SDS011;6343;50.868;4.700;2023-10-13T01:12:48;18.00;;;9.67;;
12554;SDS011;6343;50.868;4.700;2023-10-13T01:15:19;16.60;;;9.50;;
12554;SDS011;6343;50.868;4.700;2023-10-13T01:17:46;14.50;;;8.63;;
12554;SDS011;6343;50.868;4.700;2023-10-13T01:20:13;19.17;;;9.50;;
12554;SDS011;6343;50.868;4.700;2023-10-13T01:22:59;15.83;;;8.73;;
12554;SDS011;6343;50.868;4.700;2023-10-13T01:25:26;14.00;;;8.60;;
12554;SDS011;6343;50.868;4.700;2023-10-13T01:27:52;17.37;;;9.17;;
12554;SDS011;6343;50.868;4.700;2023-10-13T01:30:19;18.37;;;9.07;;
12554;SDS011;6343;50.868;4.700;2023-10-13T01:32:50;12.07;;;7.87;;
12554;SDS011;6343;50.868;4.700;2023-10-13T01:35:20;16.13;;;8.73;;
12554;SDS011;6343;50.868;4.700;2023-10-13T01:37:52;16.50;;;8.80;;
12554;SDS011;6343;50.868;4.700;2023-10-13T01:40:18;11.23;;;8.17;;
12554;SDS011;6343;50.868;4.700;2023-10-13T01:42:46;12.57;;;7.93;;
12554;SDS011;6343;50.868;4.700;2023-10-13T01:45:12;18.90;;;8.60;;
12554;SDS011;6343;50.868;4.700;2023-10-13T01:47:38;15.43;;;8.33;;
12554;SDS011;6343;50.868;4.700;2023-10-13T01:50:05;14.73;;;8.37;;
12554;SDS011;6343;50.868;4.700;2023-10-13T01:52:39;15.33;;;7.97;;
12554;SDS011;6343;50.868;4.700;2023-10-13T01:55:07;14.83;;;8.10;;
12554;SDS011;6343;50.868;4.700;2023-10-13T01:57:35;16.70;;;8.53;;
12554;SDS011;6343;50.868;4.700;2023-10-13T02:00:01;11.40;;;7.37;;
12554;SDS011;6343;50.868;4.700;2023-10-13T02:02:34;15.67;;;8.10;;
12554;SDS011;6343;50.868;4.700;2023-10-13T02:05:03;12.43;;;7.80;;
12554;SDS011;6343;50.868;4.700;2023-10-13T02:07:29;12.47;;;7.93;;
12554;SDS011;6343;50.868;4.700;2023-10-13T02:09:56;12.07;;;7.83;;
12554;SDS011;6343;50.868;4.700;2023-10-13T02:12:22;10.53;;;7.80;;
12554;SDS011;6343;50.868;4.700;2023-10-13T02:14:54;13.40;;;7.77;;
12554;SDS011;6343;50.868;4.700;2023-10-13T02:17:20;11.87;;;8.20;;
12554;SDS011;6343;50.868;4.700;2023-10-13T02:19:48;18.03;;;7.93;;
12554;SDS011;6343;50.868;4.700;2023-10-13T02:22:19;16.07;;;8.53;;
12554;SDS011;6343;50.868;4.700;2023-10-13T02:24:55;11.60;;;7.43;;
12554;SDS011;6343;50.868;4.700;2023-10-13T02:27:26;15.63;;;8.17;;
12554;SDS011;6343;50.868;4.700;2023-10-13T02:29:53;10.90;;;7.30;;
12554;SDS011;6343;50.868;4.700;2023-10-13T02:32:24;14.17;;;7.67;;
12554;SDS011;6343;50.868;4.700;2023-10-13T02:34:51;13.07;;;7.73;;
12554;SDS011;6343;50.868;4.700;2023-10-13T02:37:17;17.00;;;6.87;;
12554;SDS011;6343;50.868;4.700;2023-10-13T02:39:45;11.03;;;6.90;;
12554;SDS011;6343;50.868;4.700;2023-10-13T02:42:11;15.80;;;7.93;;
12554;SDS011;6343;50.868;4.700;2023-10-13T02:44:49;16.00;;;7.43;;
12554;SDS011;6343;50.868;4.700;2023-10-13T02:47:16;11.57;;;6.90;;
12554;SDS011;6343;50.868;4.700;2023-10-13T02:49:44;12.40;;;7.03;;
12554;SDS011;6343;50.868;4.700;2023-10-13T02:52:12;11.00;;;6.93;;
12554;SDS011;6343;50.868;4.700;2023-10-13T02:54:39;16.23;;;7.20;;
12554;SDS011;6343;50.868;4.700;2023-10-13T02:57:12;11.27;;;6.40;;
12554;SDS011;6343;50.868;4.700;2023-10-13T02:59:41;14.80;;;6.90;;
12554;SDS011;6343;50.868;4.700;2023-10-13T03:02:13;10.93;;;6.83;;
12554;SDS011;6343;50.868;4.700;2023-10-13T03:04:46;12.70;;;7.60;;
12554;SDS011;6343;50.868;4.700;2023-10-13T03:07:12;13.93;;;6.80;;
12554;SDS011;6343;50.868;4.700;2023-10-13T03:09:47;12.27;;;6.43;;
12554;SDS011;6343;50.868;4.700;2023-10-13T03:12:17;15.20;;;6.93;;
12554;SDS011;6343;50.868;4.700;2023-10-13T03:14:43;12.67;;;7.10;;
12554;SDS011;6343;50.868;4.700;2023-10-13T03:17:13;14.57;;;7.13;;
12554;SDS011;6343;50.868;4.700;2023-10-13T03:19:44;13.17;;;7.43;;
12554;SDS011;6343;50.868;4.700;2023-10-13T03:22:16;13.33;;;6.83;;
12554;SDS011;6343;50.868;4.700;2023-10-13T03:24:43;12.33;;;6.27;;
12554;SDS011;6343;50.868;4.700;2023-10-13T03:27:11;12.10;;;6.53;;
12554;SDS011;6343;50.868;4.700;2023-10-13T03:29:41;14.90;;;6.77;;
12554;SDS011;6343;50.868;4.700;2023-10-13T03:32:19;15.57;;;6.40;;
12554;SDS011;6343;50.868;4.700;2023-10-13T03:34:46;11.13;;;6.43;;
12554;SDS011;6343;50.868;4.700;2023-10-13T03:37:21;16.97;;;6.67;;
12554;SDS011;6343;50.868;4.700;2023-10-13T03:40:07;14.00;;;6.47;;
12554;SDS011;6343;50.868;4.700;2023-10-13T03:42:54;14.90;;;6.40;;
12554;SDS011;6343;50.868;4.700;2023-10-13T03:45:36;10.43;;;5.90;;
12554;SDS011;6343;50.868;4.700;2023-10-13T03:48:08;12.33;;;6.10;;
12554;SDS011;6343;50.868;4.700;2023-10-13T03:50:35;13.77;;;6.40;;
12554;SDS011;6343;50.868;4.700;2023-10-13T03:53:01;13.40;;;6.67;;
12554;SDS011;6343;50.868;4.700;2023-10-13T03:55:28;15.13;;;6.20;;
12554;SDS011;6343;50.868;4.700;2023-10-13T03:57:55;13.27;;;5.90;;
12554;SDS011;6343;50.868;4.700;2023-10-13T04:00:24;9.43;;;5.33;;
12554;SDS011;6343;50.868;4.700;2023-10-13T04:02:52;10.27;;;5.90;;
12554;SDS011;6343;50.868;4.700;2023-10-13T04:05:27;10.40;;;4.90;;
12554;SDS011;6343;50.868;4.700;2023-10-13T04:08:03;10.63;;;5.33;;
12554;SDS011;6343;50.868;4.700;2023-10-13T04:10:48;8.67;;;4.77;;
12554;SDS011;6343;50.868;4.700;2023-10-13T04:13:17;11.50;;;5.63;;
12554;SDS011;6343;50.868;4.700;2023-10-13T04:16:03;10.10;;;4.87;;
12554;SDS011;6343;50.868;4.700;2023-10-13T04:18:47;11.60;;;5.10;;
12554;SDS011;6343;50.868;4.700;2023-10-13T04:21:19;7.53;;;4.57;;
12554;SDS011;6343;50.868;4.700;2023-10-13T04:24:21;10.33;;;5.33;;
12554;SDS011;6343;50.868;4.700;2023-10-13T04:26:58;8.47;;;4.23;;
12554;SDS011;6343;50.868;4.700;2023-10-13T04:29:37;8.57;;;4.17;;
12554;SDS011;6343;50.868;4.700;2023-10-13T04:32:22;11.70;;;4.63;;
12554;SDS011;6343;50.868;4.700;2023-10-13T04:34:57;12.00;;;4.67;;
12554;SDS011;6343;50.868;4.700;2023-10-13T04:37:43;6.57;;;3.60;;
12554;SDS011;6343;50.868;4.700;2023-10-13T04:40:23;8.43;;;4.13;;
12554;SDS011;6343;50.868;4.700;2023-10-13T04:42:50;9.03;;;3.83;;
12554;SDS011;6343;50.868;4.700;2023-10-13T04:45:21;9.70;;;3.90;;
12554;SDS011;6343;50.868;4.700;2023-10-13T04:47:56;11.27;;;3.67;;
12554;SDS011;6343;50.868;4.700;2023-10-13T04:50:38;8.83;;;4.40;;
12554;SDS011;6343;50.868;4.700;2023-10-13T04:53:11;12.70;;;4.03;;
12554;SDS011;6343;50.868;4.700;2023-10-13T04:55:52;14.43;;;5.43;;
12554;SDS011;6343;50.868;4.700;2023-10-13T04:58:28;10.07;;;4.20;;
12554;SDS011;6343;50.868;4.700;2023-10-13T05:01:14;6.27;;;4.10;;
12554;SDS011;6343;50.868;4.700;2023-10-13T05:03:49;8.33;;;4.03;;
12554;SDS011;6343;50.868;4.700;2023-10-13T05:06:19;12.37;;;4.20;;
12554;SDS011;6343;50.868;4.700;2023-10-13T05:09:03;10.73;;;4.30;;
12554;SDS011;6343;50.868;4.700;2023-10-13T05:11:48;10.37;;;4.43;;
12554;SDS011;6343;50.868;4.700;2023-10-13T05:14:33;11.10;;;4.53;;
12554;SDS011;6343;50.868;4.700;2023-10-13T05:17:17;12.07;;;4.83;;
12554;SDS011;6343;50.868;4.700;2023-10-13T05:20:02;14.30;;;4.40;;
12554;SDS011;6343;50.868;4.700;2023-10-13T05:22:46;9.83;;;3.80;;
12554;SDS011;6343;50.868;4.700;2023-10-13T05:25:34;11.37;;;4.00;;
12554;SDS011;6343;50.868;4.700;2023-10-13T05:28:19;10.07;;;4.07;;
12554;SDS011;6343;50.868;4.700;2023-10-13T05:31:03;8.30;;;3.83;;
12554;SDS011;6343;50.868;4.700;2023-10-13T05:33:48;13.80;;;4.33;;
12554;SDS011;6343;50.868;4.700;2023-10-13T05:36:33;11.10;;;3.80;;
12554;SDS011;6343;50.868;4.700;2023-10-13T05:39:18;10.90;;;4.40;;
12554;SDS011;6343;50.868;4.700;2023-10-13T05:42:03;9.73;;;4.00;;
12554;SDS011;6343;50.868;4.700;2023-10-13T05:44:48;11.83;;;4.27;;
12554;SDS011;6343;50.868;4.700;2023-10-13T05:47:33;10.37;;;4.23;;
12554;SDS011;6343;50.868;4.700;2023-10-13T05:50:01;12.03;;;3.80;;
12554;SDS011;6343;50.868;4.700;2023-10-13T05:52:50;13.43;;;4.33;;
12554;SDS011;6343;50.868;4.700;2023-10-13T05:55:25;13.97;;;4.20;;
12554;SDS011;6343;50.868;4.700;2023-10-13T05:58:10;12.83;;;5.10;;
12554;SDS011;6343;50.868;4.700;2023-10-13T06:00:55;10.40;;;4.00;;
12554;SDS011;6343;50.868;4.700;2023-10-13T06:03:40;11.10;;;4.57;;
12554;SDS011;6343;50.868;4.700;2023-10-13T06:06:25;11.93;;;3.77;;
12554;SDS011;6343;50.868;4.700;2023-10-13T06:09:10;12.23;;;4.30;;
12554;SDS011;6343;50.868;4.700;2023-10-13T06:11:55;11.00;;;4.20;;
12554;SDS011;6343;50.868;4.700;2023-10-13T06:14:39;14.63;;;3.90;;
12554;SDS011;6343;50.868;4.700;2023-10-13T06:17:24;11.27;;;4.90;;
12554;SDS011;6343;50.868;4.700;2023-10-13T06:20:09;7.97;;;4.10;;
12554;SDS011;6343;50.868;4.700;2023-10-13T06:22:54;10.40;;;4.07;;
12554;SDS011;6343;50.868;4.700;2023-10-13T06:25:38;15.93;;;4.70;;
12554;SDS011;6343;50.868;4.700;2023-10-13T06:28:23;11.17;;;4.10;;
12554;SDS011;6343;50.868;4.700;2023-10-13T06:31:10;10.77;;;4.23;;
12554;SDS011;6343;50.868;4.700;2023-10-13T06:33:51;11.97;;;4.10;;
12554;SDS011;6343;50.868;4.700;2023-10-13T06:36:17;10.43;;;3.90;;
12554;SDS011;6343;50.868;4.700;2023-10-13T06:38:43;13.20;;;5.10;;
12554;SDS011;6343;50.868;4.700;2023-10-13T06:41:09;11.63;;;4.30;;
12554;SDS011;6343;50.868;4.700;2023-10-13T06:43:44;12.07;;;4.50;;
12554;SDS011;6343;50.868;4.700;2023-10-13T06:46:10;14.20;;;4.33;;
12554;SDS011;6343;50.868;4.700;2023-10-13T06:48:40;13.47;;;4.57;;
12554;SDS011;6343;50.868;4.700;2023-10-13T06:51:07;11.13;;;4.27;;
12554;SDS011;6343;50.868;4.700;2023-10-13T06:53:51;10.87;;;3.90;;
12554;SDS011;6343;50.868;4.700;2023-10-13T06:56:22;11.40;;;4.60;;
12554;SDS011;6343;50.868;4.700;2023-10-13T06:58:51;12.90;;;5.00;;
12554;SDS011;6343;50.868;4.700;2023-10-13T07:01:24;9.43;;;4.20;;
12554;SDS011;6343;50.868;4.700;2023-10-13T07:03:50;11.50;;;4.20;;
12554;SDS011;6343;50.868;4.700;2023-10-13T07:06:22;13.70;;;4.77;;
12554;SDS011;6343;50.868;4.700;2023-10-13T07:08:50;11.73;;;4.70;;
12554;SDS011;6343;50.868;4.700;2023-10-13T07:11:25;9.53;;;4.30;;
12554;SDS011;6343;50.868;4.700;2023-10-13T07:13:59;14.17;;;4.33;;
12554;SDS011;6343;50.868;4.700;2023-10-13T07:16:25;11.23;;;4.63;;
12554;SDS011;6343;50.868;4.700;2023-10-13T07:19:08;10.87;;;4.43;;
12554;SDS011;6343;50.868;4.700;2023-10-13T07:21:34;14.10;;;4.77;;
12554;SDS011;6343;50.868;4.700;2023-10-13T07:24:00;9.80;;;4.47;;
12554;SDS011;6343;50.868;4.700;2023-10-13T07:26:33;10.90;;;3.90;;
12554;SDS011;6343;50.868;4.700;2023-10-13T07:28:59;14.37;;;4.20;;
12554;SDS011;6343;50.868;4.700;2023-10-13T07:31:25;9.57;;;3.83;;
12554;SDS011;6343;50.868;4.700;2023-10-13T07:33:52;14.00;;;4.13;;
12554;SDS011;6343;50.868;4.700;2023-10-13T07:36:30;9.53;;;4.50;;
12554;SDS011;6343;50.868;4.700;2023-10-13T07:39:04;10.30;;;4.57;;
12554;SDS011;6343;50.868;4.700;2023-10-13T07:41:49;13.53;;;4.93;;
12554;SDS011;6343;50.868;4.700;2023-10-13T07:44:33;14.63;;;4.53;;
12554;SDS011;6343;50.868;4.700;2023-10-13T07:47:00;8.87;;;4.03;;
12554;SDS011;6343;50.868;4.700;2023-10-13T07:49:30;10.30;;;4.80;;
12554;SDS011;6343;50.868;4.700;2023-10-13T07:52:00;12.17;;;4.40;;
12554;SDS011;6343;50.868;4.700;2023-10-13T07:54:43;15.77;;;3.97;;
12554;SDS011;6343;50.868;4.700;2023-10-13T07:57:09;12.83;;;4.47;;
12554;SDS011;6343;50.868;4.700;2023-10-13T07:59:40;8.77;;;4.43;;
12554;SDS011;6343;50.868;4.700;2023-10-13T08:02:14;9.17;;;3.83;;
12554;SDS011;6343;50.868;4.700;2023-10-13T08:05:00;11.27;;;4.70;;
12554;SDS011;6343;50.868;4.700;2023-10-13T08:07:26;13.13;;;4.30;;
12554;SDS011;6343;50.868;4.700;2023-10-13T08:09:54;9.33;;;4.37;;
12554;SDS011;6343;50.868;4.700;2023-10-13T08:12:22;8.87;;;4.73;;
12554;SDS011;6343;50.868;4.700;2023-10-13T08:14:48;7.47;;;4.50;;
12554;SDS011;6343;50.868;4.700;2023-10-13T08:17:34;8.27;;;4.10;;
12554;SDS011;6343;50.868;4.700;2023-10-13T08:20:00;12.73;;;4.23;;
12554;SDS011;6343;50.868;4.700;2023-10-13T08:22:36;24.53;;;5.57;;
12554;SDS011;6343;50.868;4.700;2023-10-13T08:25:03;55.00;;;9.37;;
12554;SDS011;6343;50.868;4.700;2023-10-13T08:27:48;11.00;;;5.10;;
12554;SDS011;6343;50.868;4.700;2023-10-13T08:30:15;13.27;;;4.87;;
12554;SDS011;6343;50.868;4.700;2023-10-13T08:32:54;13.60;;;4.63;;
12554;SDS011;6343;50.868;4.700;2023-10-13T08:35:24;12.60;;;4.50;;
12554;SDS011;6343;50.868;4.700;2023-10-13T08:38:00;8.47;;;4.00;;
12554;SDS011;6343;50.868;4.700;2023-10-13T08:40:29;8.70;;;4.40;;
12554;SDS011;6343;50.868;4.700;2023-10-13T08:43:12;8.37;;;4.47;;
12554;SDS011;6343;50.868;4.700;2023-10-13T08:45:39;9.63;;;4.37;;
12554;SDS011;6343;50.868;4.700;2023-10-13T08:48:09;11.33;;;4.70;;
12554;SDS011;6343;50.868;4.700;2023-10-13T08:50:49;10.47;;;4.53;;
12554;SDS011;6343;50.868;4.700;2023-10-13T08:56:04;13.87;;;4.80;;
12554;SDS011;6343;50.868;4.700;2023-10-13T08:58:37;17.20;;;5.77;;
12554;SDS011;6343;50.868;4.700;2023-10-13T09:06:51;23.60;;;4.90;;
12554;SDS011;6343;50.868;4.700;2023-10-13T09:12:23;14.57;;;5.43;;
12554;SDS011;6343;50.868;4.700;2023-10-13T09:15:10;12.47;;;5.20;;
12554;SDS011;6343;50.868;4.700;2023-10-13T09:17:46;11.60;;;4.33;;
12554;SDS011;6343;50.868;4.700;2023-10-13T09:20:41;10.23;;;5.00;;
12554;SDS011;6343;50.868;4.700;2023-10-13T09:23:11;13.40;;;5.63;;
12554;SDS011;6343;50.868;4.700;2023-10-13T09:25:45;10.53;;;5.00;;
12554;SDS011;6343;50.868;4.700;2023-10-13T09:28:23;12.57;;;4.80;;
12554;SDS011;6343;50.868;4.700;2023-10-13T09:30:52;9.20;;;4.70;;
12554;SDS011;6343;50.868;4.700;2023-10-13T09:33:20;9.77;;;4.60;;
12554;SDS011;6343;50.868;4.700;2023-10-13T09:35:54;10.90;;;5.30;;
12554;SDS011;6343;50.868;4.700;2023-10-13T09:38:24;18.03;;;5.93;;
12554;SDS011;6343;50.868;4.700;2023-10-13T09:40:50;12.50;;;4.90;;
12554;SDS011;6343;50.868;4.700;2023-10-13T09:43:22;9.60;;;4.60;;
12554;SDS011;6343;50.868;4.700;2023-10-13T09:45:50;16.27;;;5.37;;
12554;SDS011;6343;50.868;4.700;2023-10-13T09:48:34;12.47;;;5.07;;
12554;SDS011;6343;50.868;4.700;2023-10-13T09:51:02;10.80;;;5.40;;
12554;SDS011;6343;50.868;4.700;2023-10-13T09:53:33;9.87;;;5.00;;
12554;SDS011;6343;50.868;4.700;2023-10-13T09:56:11;11.67;;;5.20;;
12554;SDS011;6343;50.868;4.700;2023-10-13T09:59:04;9.00;;;4.80;;
12554;SDS011;6343;50.868;4.700;2023-10-13T10:01:39;9.93;;;5.07;;
12554;SDS011;6343;50.868;4.700;2023-10-13T10:04:15;14.67;;;5.50;;
12554;SDS011;6343;50.868;4.700;2023-10-13T10:06:57;11.07;;;5.60;;
12554;SDS011;6343;50.868;4.700;2023-10-13T10:09:27;13.13;;;5.13;;
12554;SDS011;6343;50.868;4.700;2023-10-13T10:17:06;16.60;;;5.40;;
12554;SDS011;6343;50.868;4.700;2023-10-13T10:19:51;13.47;;;5.30;;
12554;SDS011;6343;50.868;4.700;2023-10-13T10:22:28;9.30;;;4.37;;
12554;SDS011;6343;50.868;4.700;2023-10-13T10:25:03;12.97;;;4.77;;
12554;SDS011;6343;50.868;4.700;2023-10-13T10:27:54;12.70;;;4.70;;
12554;SDS011;6343;50.868;4.700;2023-10-13T10:30:25;14.00;;;4.53;;
12554;SDS011;6343;50.868;4.700;2023-10-13T10:32:55;11.70;;;5.07;;
12554;SDS011;6343;50.868;4.700;2023-10-13T10:35:24;11.03;;;4.50;;
12554;SDS011;6343;50.868;4.700;2023-10-13T10:38:10;10.53;;;4.07;;
12554;SDS011;6343;50.868;4.700;2023-10-13T10:40:52;9.03;;;4.53;;
12554;SDS011;6343;50.868;4.700;2023-10-13T10:45:56;11.90;;;4.90;;
12554;SDS011;6343;50.868;4.700;2023-10-13T10:48:25;9.87;;;4.80;;
12554;SDS011;6343;50.868;4.700;2023-10-13T10:53:05;18.13;;;5.33;;
12554;SDS011;6343;50.868;4.700;2023-10-13T10:55:35;12.60;;;4.30;;
12554;SDS011;6343;50.868;4.700;2023-10-13T10:58:02;22.10;;;4.53;;
12554;SDS011;6343;50.868;4.700;2023-10-13T11:00:32;14.20;;;4.53;;
12554;SDS011;6343;50.868;4.700;2023-10-13T11:03:11;14.70;;;5.20;;
12554;SDS011;6343;50.868;4.700;2023-10-13T11:05:47;17.20;;;5.10;;
12554;SDS011;6343;50.868;4.700;2023-10-13T11:08:22;14.73;;;4.63;;
12554;SDS011;6343;50.868;4.700;2023-10-13T11:10:56;19.40;;;4.93;;
12554;SDS011;6343;50.868;4.700;2023-10-13T11:13:22;13.27;;;5.00;;
12554;SDS011;6343;50.868;4.700;2023-10-13T11:15:48;14.03;;;4.97;;
12554;SDS011;6343;50.868;4.700;2023-10-13T11:18:15;12.87;;;5.33;;
12554;SDS011;6343;50.868;4.700;2023-10-13T11:20:46;13.37;;;4.93;;
12554;SDS011;6343;50.868;4.700;2023-10-13T11:23:15;10.27;;;4.10;;
12554;SDS011;6343;50.868;4.700;2023-10-13T11:25:41;15.47;;;4.93;;
12554;SDS011;6343;50.868;4.700;2023-10-13T11:28:11;15.30;;;4.40;;
12554;SDS011;6343;50.868;4.700;2023-10-13T11:30:42;27.77;;;4.93;;
12554;SDS011;6343;50.868;4.700;2023-10-13T11:33:14;12.17;;;5.00;;
12554;SDS011;6343;50.868;4.700;2023-10-13T11:35:43;11.20;;;5.23;;
12554;SDS011;6343;50.868;4.700;2023-10-13T11:38:16;12.47;;;5.50;;
12554;SDS011;6343;50.868;4.700;2023-10-13T11:40:52;17.25;;;4.65;;
12554;SDS011;6343;50.868;4.700;2023-10-13T11:43:30;17.17;;;5.43;;
12554;SDS011;6343;50.868;4.700;2023-10-13T11:46:09;14.63;;;4.67;;
12554;SDS011;6343;50.868;4.700;2023-10-13T11:48:38;10.97;;;4.20;;
12554;SDS011;6343;50.868;4.700;2023-10-13T11:51:07;12.63;;;4.20;;
12554;SDS011;6343;50.868;4.700;2023-10-13T11:53:36;18.65;;;4.97;;
12554;SDS011;6343;50.868;4.700;2023-10-13T11:56:03;14.98;;;5.30;;
12554;SDS011;6343;50.868;4.700;2023-10-13T11:58:37;17.00;;;5.33;;
12554;SDS011;6343;50.868;4.700;2023-10-13T12:01:04;13.40;;;5.17;;
12554;SDS011;6343;50.868;4.700;2023-10-13T12:03:42;21.73;;;4.83;;
12554;SDS011;6343;50.868;4.700;2023-10-13T12:06:28;23.23;;;5.10;;
12554;SDS011;6343;50.868;4.700;2023-10-13T12:09:04;23.35;;;5.18;;
12554;SDS011;6343;50.868;4.700;2023-10-13T12:11:43;14.48;;;5.18;;
12554;SDS011;6343;50.868;4.700;2023-10-13T12:14:12;14.83;;;5.10;;
12554;SDS011;6343;50.868;4.700;2023-10-13T12:16:47;18.10;;;4.80;;
12554;SDS011;6343;50.868;4.700;2023-10-13T12:19:20;12.48;;;4.80;;
12554;SDS011;6343;50.868;4.700;2023-10-13T12:21:53;17.00;;;4.73;;
12554;SDS011;6343;50.868;4.700;2023-10-13T12:24:22;13.63;;;4.80;;
12554;SDS011;6343;50.868;4.700;2023-10-13T12:27:04;11.07;;;4.88;;
12554;SDS011;6343;50.868;4.700;2023-10-13T12:29:51;9.18;;;5.07;;
12554;SDS011;6343;50.868;4.700;2023-10-13T12:32:17;10.43;;;4.63;;
12554;SDS011;6343;50.868;4.700;2023-10-13T12:34:55;14.57;;;4.87;;
12554;SDS011;6343;50.868;4.700;2023-10-13T12:37:41;9.05;;;4.20;;
12554;SDS011;6343;50.868;4.700;2023-10-13T12:40:08;11.83;;;4.70;;
12554;SDS011;6343;50.868;4.700;2023-10-13T12:42:53;12.27;;;4.70;;
12554;SDS011;6343;50.868;4.700;2023-10-13T12:45:42;10.95;;;4.88;;
12554;SDS011;6343;50.868;4.700;2023-10-13T12:48:27;8.93;;;4.93;;
12554;SDS011;6343;50.868;4.700;2023-10-13T12:51:12;17.25;;;4.63;;
12554;SDS011;6343;50.868;4.700;2023-10-13T12:53:56;15.70;;;4.63;;
12554;SDS011;6343;50.868;4.700;2023-10-13T12:56:44;11.93;;;4.07;;
12554;SDS011;6343;50.868;4.700;2023-10-13T12:59:11;11.10;;;5.53;;
12554;SDS011;6343;50.868;4.700;2023-10-13T13:01:40;11.40;;;4.40;;
12554;SDS011;6343;50.868;4.700;2023-10-13T13:04:10;15.33;;;4.60;;
12554;SDS011;6343;50.868;4.700;2023-10-13T13:06:38;10.67;;;4.47;;
12554;SDS011;6343;50.868;4.700;2023-10-13T13:09:05;13.57;;;4.27;;
12554;SDS011;6343;50.868;4.700;2023-10-13T13:11:35;18.53;;;4.50;;
12554;SDS011;6343;50.868;4.700;2023-10-13T13:14:08;15.70;;;4.60;;
12554;SDS011;6343;50.868;4.700;2023-10-13T13:16:35;14.97;;;4.33;;
12554;SDS011;6343;50.868;4.700;2023-10-13T13:19:03;7.70;;;4.27;;
12554;SDS011;6343;50.868;4.700;2023-10-13T13:21:38;9.33;;;4.00;;
12554;SDS011;6343;50.868;4.700;2023-10-13T13:24:05;14.82;;;4.25;;
12554;SDS011;6343;50.868;4.700;2023-10-13T13:26:40;11.03;;;4.33;;
12554;SDS011;6343;50.868;4.700;2023-10-13T13:29:06;16.13;;;4.40;;
12554;SDS011;6343;50.868;4.700;2023-10-13T13:31:36;9.17;;;4.17;;
12554;SDS011;6343;50.868;4.700;2023-10-13T13:34:09;10.10;;;4.18;;
12554;SDS011;6343;50.868;4.700;2023-10-13T13:36:38;12.40;;;4.77;;
12554;SDS011;6343;50.868;4.700;2023-10-13T13:39:05;12.00;;;4.20;;
12554;SDS011;6343;50.868;4.700;2023-10-13T13:41:32;8.63;;;3.67;;
12554;SDS011;6343;50.868;4.700;2023-10-13T13:43:58;9.03;;;4.27;;
12554;SDS011;6343;50.868;4.700;2023-10-13T13:46:38;9.13;;;3.83;;
12554;SDS011;6343;50.868;4.700;2023-10-13T13:49:08;9.38;;;3.83;;
12554;SDS011;6343;50.868;4.700;2023-10-13T13:51:43;8.23;;;4.37;;
12554;SDS011;6343;50.868;4.700;2023-10-13T13:54:16;10.40;;;5.20;;
12554;SDS011;6343;50.868;4.700;2023-10-13T13:56:42;12.27;;;4.17;;
12554;SDS011;6343;50.868;4.700;2023-10-13T13:59:09;13.60;;;4.10;;
12554;SDS011;6343;50.868;4.700;2023-10-13T14:01:40;13.93;;;4.77;;
12554;SDS011;6343;50.868;4.700;2023-10-13T14:04:09;13.73;;;4.30;;
12554;SDS011;6343;50.868;4.700;2023-10-13T14:06:35;13.63;;;4.30;;
12554;SDS011;6343;50.868;4.700;2023-10-13T14:09:02;8.13;;;4.47;;
12554;SDS011;6343;50.868;4.700;2023-10-13T14:11:39;7.47;;;4.07;;
12554;SDS011;6343;50.868;4.700;2023-10-13T14:14:12;8.93;;;4.17;;
12554;SDS011;6343;50.868;4.700;2023-10-13T14:16:45;8.27;;;4.20;;
12554;SDS011;6343;50.868;4.700;2023-10-13T14:19:14;11.63;;;5.07;;
12554;SDS011;6343;50.868;4.700;2023-10-13T14:21:56;14.57;;;4.15;;
12554;SDS011;6343;50.868;4.700;2023-10-13T14:24:23;9.90;;;3.92;;
12554;SDS011;6343;50.868;4.700;2023-10-13T14:27:02;13.50;;;4.00;;
12554;SDS011;6343;50.868;4.700;2023-10-13T14:29:35;15.15;;;4.20;;
12554;SDS011;6343;50.868;4.700;2023-10-13T14:32:08;13.53;;;4.77;;
12554;SDS011;6343;50.868;4.700;2023-10-13T14:34:44;8.27;;;4.53;;
12554;SDS011;6343;50.868;4.700;2023-10-13T14:37:11;9.50;;;3.90;;
12554;SDS011;6343;50.868;4.700;2023-10-13T14:39:51;10.03;;;3.87;;
12554;SDS011;6343;50.868;4.700;2023-10-13T14:42:21;9.75;;;4.72;;
12554;SDS011;6343;50.868;4.700;2023-10-13T14:44:47;10.33;;;4.83;;
12554;SDS011;6343;50.868;4.700;2023-10-13T14:47:21;8.47;;;4.20;;
12554;SDS011;6343;50.868;4.700;2023-10-13T14:49:50;13.50;;;4.43;;
12554;SDS011;6343;50.868;4.700;2023-10-13T14:52:19;9.47;;;4.13;;
12554;SDS011;6343;50.868;4.700;2023-10-13T14:54:46;12.80;;;4.77;;
12554;SDS011;6343;50.868;4.700;2023-10-13T14:57:13;10.03;;;4.07;;
12554;SDS011;6343;50.868;4.700;2023-10-13T14:59:39;8.77;;;4.97;;
12554;SDS011;6343;50.868;4.700;2023-10-13T15:02:06;10.93;;;4.37;;
12554;SDS011;6343;50.868;4.700;2023-10-13T15:04:32;8.97;;;4.43;;
12554;SDS011;6343;50.868;4.700;2023-10-13T15:06:58;8.13;;;3.60;;
12554;SDS011;6343;50.868;4.700;2023-10-13T15:09:27;9.93;;;4.60;;
12554;SDS011;6343;50.868;4.700;2023-10-13T15:11:53;12.07;;;4.23;;
12554;SDS011;6343;50.868;4.700;2023-10-13T15:16:48;9.00;;;4.63;;
12554;SDS011;6343;50.868;4.700;2023-10-13T15:19:14;12.07;;;4.00;;
12554;SDS011;6343;50.868;4.700;2023-10-13T15:21:44;14.20;;;4.97;;
12554;SDS011;6343;50.868;4.700;2023-10-13T15:24:15;8.57;;;4.27;;
12554;SDS011;6343;50.868;4.700;2023-10-13T15:26:47;9.50;;;4.97;;
12554;SDS011;6343;50.868;4.700;2023-10-13T15:29:16;10.10;;;4.20;;
12554;SDS011;6343;50.868;4.700;2023-10-13T15:31:46;11.67;;;4.47;;
12554;SDS011;6343;50.868;4.700;2023-10-13T15:34:24;10.17;;;4.27;;
12554;SDS011;6343;50.868;4.700;2023-10-13T15:36:54;10.17;;;4.60;;
12554;SDS011;6343;50.868;4.700;2023-10-13T15:39:21;10.53;;;4.53;;
12554;SDS011;6343;50.868;4.700;2023-10-13T15:41:57;12.63;;;4.50;;
12554;SDS011;6343;50.868;4.700;2023-10-13T15:44:26;12.63;;;4.40;;
12554;SDS011;6343;50.868;4.700;2023-10-13T15:46:55;10.27;;;4.40;;
12554;SDS011;6343;50.868;4.700;2023-10-13T15:49:22;14.83;;;5.20;;
12554;SDS011;6343;50.868;4.700;2023-10-13T15:51:48;10.60;;;4.53;;
12554;SDS011;6343;50.868;4.700;2023-10-13T15:54:14;11.13;;;4.57;;